Western Dawn — WSB9934 — position and weather

sailwx.info

Track history (hours):
 
Tides and Currents Weather Stations Pressure Air Temp Water Temp Dewpoint Dewpoint Depression Visibility Wind Speed Wind Dir Waves Ship Positions

Western Dawn

Owner: OLSEN, THOR A, SEATTLE, WA. More information available from US FCC via Universal Licensing System and Coast Guard Vessel Documentation Center.

Last reported at 2017-Oct-16 01:37 UTC. Time now 2017-Oct-19 09:01 UTC.
Position N 42°56' W 124°55'.

Length 30 m; draft 4 m.

Type: Fishing. MMSI: 366264360.

Date/timePositionNaut miles runAvg speedWind from/ knotsBaromVisibWave heightAir tempDewpointWater temp
2017-Oct-16 01:37N 42°56' W 124°55'1 8.5
2017-Oct-16 01:28N 42°57' W 124°54'36 9.9
2017-Oct-15 21:50N 43°33' W 124°50'310.6
2017-Oct-15 21:30N 43°37' W 124°50'510.5
2017-Oct-15 21:00N 43°42' W 124°49'610.6
2017-Oct-15 20:29N 43°47' W 124°49'6 8.9
2017-Oct-15 19:47N 43°53' W 124°52'0 0.5
2017-Oct-15 19:23N 43°53' W 124°52'3 0.3
2017-Oct-15 09:41N 43°51' W 124°55'1 3.1
2017-Oct-15 09:17N 43°50' W 124°54'0 0.8
2017-Oct-15 09:00N 43°50' W 124°54'1 1.8
2017-Oct-15 08:29N 43°51' W 124°53'2 2.6
2017-Oct-15 07:45N 43°50' W 124°50'9 1.3
2017-Oct-15 00:52N 43°55' W 125°01'1 3.6
2017-Oct-15 00:30N 43°55' W 124°59'1 2.7
2017-Oct-15 00:00N 43°56' W 124°58'1 2.9
2017-Oct-14 23:30N 43°57' W 124°59'3 3.2
2017-Oct-14 22:29N 44°01' W 124°58'1 2.9
2017-Oct-14 22:00N 44°02' W 124°58'2 3.3
2017-Oct-14 21:30N 44°04' W 124°59'3 6.5
2017-Oct-14 21:00N 44°07' W 124°59'510.4
2017-Oct-14 20:30N 44°12' W 124°59'5 9.5
2017-Oct-14 20:00N 44°16' W 124°56'1 1.5
2017-Oct-14 19:30N 44°17' W 124°56'5 9.5
2017-Oct-14 19:00N 44°13' W 124°58'5 9.3
2017-Oct-14 18:30N 44°08' W 124°59'2 3.5
2017-Oct-14 18:00N 44°06' W 124°58'4 8.5
2017-Oct-14 17:29N 44°02' W 124°58'2 2.4
2017-Oct-14 16:50N 44°01' W 124°59'0 0.1
2017-Oct-14 16:30N 44°00' W 124°59'  
2017-Oct-10 05:11N 44°07' W 124°60'2 3.2
2017-Oct-10 04:31N 44°09' W 124°60'0 3.7
2017-Oct-10 04:29N 44°09' W 124°60'6 3.4
2017-Oct-10 02:49N 44°15' W 124°60'1 2.2
2017-Oct-10 02:20N 44°14' W 124°58'5 1.7
2017-Oct-09 23:33N 44°10' W 125°01'0 2.5
2017-Oct-09 23:29N 44°10' W 125°01'1 1.4
2017-Oct-09 23:00N 44°11' W 125°00'2 3.1
2017-Oct-09 22:29N 44°12' W 124°60'2 3.3
2017-Oct-09 22:00N 44°14' W 124°58'2 3.1
2017-Oct-09 21:30N 44°15' W 124°57'2 3.9
2017-Oct-09 21:00N 44°16' W 124°56'1 2.3
2017-Oct-09 20:30N 44°16' W 124°57'3 6.7
2017-Oct-09 20:00N 44°13' W 124°59'5 9.1
2017-Oct-09 19:30N 44°08' W 124°59'4 8.9
2017-Oct-09 19:00N 44°04' W 124°58'7 9.0
2017-Oct-09 18:13N 43°57' W 124°59'7 0.6
2017-Oct-09 04:57N 43°50' W 124°54'2 4.0
2017-Oct-09 04:28N 43°49' W 124°51'2 4.7
2017-Oct-09 04:00N 43°49' W 124°54'14 0.3
2017-Oct-07 04:03N 43°53' W 124°37'0 0.2
2017-Oct-07 04:00N 43°53' W 124°37'0 0.1
2017-Oct-07 03:29N 43°53' W 124°37'0 0.1
2017-Oct-07 02:58N 43°53' W 124°37'0 0.7
2017-Oct-07 02:30N 43°53' W 124°37'4 7.9
2017-Oct-07 02:00N 43°50' W 124°39'3 5.0
2017-Oct-07 01:22N 43°46' W 124°39'0 0.5
2017-Oct-07 01:00N 43°47' W 124°39'0 0.6
2017-Oct-07 00:30N 43°47' W 124°39'0 0.8
2017-Oct-07 00:01N 43°47' W 124°38'0 0.9
2017-Oct-06 23:31N 43°48' W 124°38'0 0.9
2017-Oct-06 23:00N 43°48' W 124°38'0 0.9
2017-Oct-06 22:30N 43°48' W 124°38'0 0.9
2017-Oct-06 22:00N 43°49' W 124°37'0 0.9
2017-Oct-06 21:28N 43°49' W 124°37'0 0.9
2017-Oct-06 21:00N 43°50' W 124°37'1 2.3
2017-Oct-06 20:30N 43°50' W 124°39'2 3.7
2017-Oct-06 20:00N 43°48' W 124°39'4 7.5
2017-Oct-06 19:30N 43°45' W 124°37'3 6.5
2017-Oct-06 19:00N 43°42' W 124°36'4 7.6
2017-Oct-06 18:31N 43°42' W 124°41'2 3.3
2017-Oct-06 18:00N 43°42' W 124°39'1 1.6
2017-Oct-06 17:28N 43°43' W 124°39'1 2.3
2017-Oct-06 17:00N 43°44' W 124°39'2 2.9
2017-Oct-06 16:29N 43°45' W 124°39'2 2.5
2017-Oct-06 15:52N 43°47' W 124°39'1 2.9
2017-Oct-06 15:30N 43°48' W 124°39'2 2.8
2017-Oct-06 14:42N 43°50' W 124°38'1 3.2
2017-Oct-06 14:30N 43°51' W 124°38'2 3.7
2017-Oct-06 14:00N 43°52' W 124°38'1 2.0
2017-Oct-06 13:30N 43°53' W 124°36'0 0.6
2017-Oct-06 13:00N 43°53' W 124°36'0 0.4
2017-Oct-06 12:30N 43°53' W 124°37'0 0.3
2017-Oct-06 11:40N 43°53' W 124°37'1 3.8
2017-Oct-06 11:30N 43°52' W 124°38'2 3.6
2017-Oct-06 11:00N 43°51' W 124°39'2 3.6
2017-Oct-06 10:30N 43°50' W 124°41'2 3.4
2017-Oct-06 10:00N 43°49' W 124°42'2 4.1
2017-Oct-06 09:30N 43°47' W 124°44'2 3.5
2017-Oct-06 08:58N 43°46' W 124°46'0 0.3
2017-Oct-06 08:30N 43°46' W 124°46'1 2.2
2017-Oct-06 08:01N 43°45' W 124°44'1 1.9
2017-Oct-06 07:30N 43°46' W 124°44'1 2.4
2017-Oct-06 07:00N 43°47' W 124°43'1 2.5
2017-Oct-06 06:30N 43°47' W 124°41'1 2.7
2017-Oct-06 06:00N 43°46' W 124°40'1 2.6
2017-Oct-06 05:30N 43°45' W 124°39'1 2.1
2017-Oct-06 05:00N 43°43' W 124°39'2 3.0
2017-Oct-06 04:30N 43°42' W 124°39'1 3.0
2017-Oct-06 04:00N 43°40' W 124°39'1 3.0
2017-Oct-06 03:30N 43°39' W 124°39'2 3.4
2017-Oct-06 03:00N 43°37' W 124°39'2 3.8
2017-Oct-06 02:31N 43°39' W 124°39'0 0.5
2017-Oct-06 02:00N 43°39' W 124°39'  
Track history (hours):
 
Tides and Currents Weather Stations Pressure Air Temp Water Temp Dewpoint Dewpoint Depression Visibility Wind Speed Wind Dir Waves Ship Positions

Western Dawn

Owner: OLSEN, THOR A, SEATTLE, WA. More information available from US FCC via Universal Licensing System and Coast Guard Vessel Documentation Center.

Last reported at 2017-Oct-16 01:37 UTC. Time now 2017-Oct-19 09:01 UTC.
Position N 42°56' W 124°55'.

Length 30 m; draft 4 m.

Type: Fishing. MMSI: 366264360.

Date/timePositionNaut miles runAvg speedWind from/ knotsBaromVisibWave heightAir tempDewpointWater temp
2017-Oct-16 01:37N 42°56' W 124°55'1 8.5
2017-Oct-16 01:28N 42°57' W 124°54'36 9.9
2017-Oct-15 21:50N 43°33' W 124°50'310.6
2017-Oct-15 21:30N 43°37' W 124°50'510.5
2017-Oct-15 21:00N 43°42' W 124°49'610.6
2017-Oct-15 20:29N 43°47' W 124°49'6 8.9
2017-Oct-15 19:47N 43°53' W 124°52'0 0.5
2017-Oct-15 19:23N 43°53' W 124°52'3 0.3
2017-Oct-15 09:41N 43°51' W 124°55'1 3.1
2017-Oct-15 09:17N 43°50' W 124°54'0 0.8
2017-Oct-15 09:00N 43°50' W 124°54'1 1.8
2017-Oct-15 08:29N 43°51' W 124°53'2 2.6
2017-Oct-15 07:45N 43°50' W 124°50'9 1.3
2017-Oct-15 00:52N 43°55' W 125°01'1 3.6
2017-Oct-15 00:30N 43°55' W 124°59'1 2.7
2017-Oct-15 00:00N 43°56' W 124°58'1 2.9
2017-Oct-14 23:30N 43°57' W 124°59'3 3.2
2017-Oct-14 22:29N 44°01' W 124°58'1 2.9
2017-Oct-14 22:00N 44°02' W 124°58'2 3.3
2017-Oct-14 21:30N 44°04' W 124°59'3 6.5
2017-Oct-14 21:00N 44°07' W 124°59'510.4
2017-Oct-14 20:30N 44°12' W 124°59'5 9.5
2017-Oct-14 20:00N 44°16' W 124°56'1 1.5
2017-Oct-14 19:30N 44°17' W 124°56'5 9.5
2017-Oct-14 19:00N 44°13' W 124°58'5 9.3
2017-Oct-14 18:30N 44°08' W 124°59'2 3.5
2017-Oct-14 18:00N 44°06' W 124°58'4 8.5
2017-Oct-14 17:29N 44°02' W 124°58'2 2.4
2017-Oct-14 16:50N 44°01' W 124°59'0 0.1
2017-Oct-14 16:30N 44°00' W 124°59'  
2017-Oct-10 05:11N 44°07' W 124°60'2 3.2
2017-Oct-10 04:31N 44°09' W 124°60'0 3.7
2017-Oct-10 04:29N 44°09' W 124°60'6 3.4
2017-Oct-10 02:49N 44°15' W 124°60'1 2.2
2017-Oct-10 02:20N 44°14' W 124°58'5 1.7
2017-Oct-09 23:33N 44°10' W 125°01'0 2.5
2017-Oct-09 23:29N 44°10' W 125°01'1 1.4
2017-Oct-09 23:00N 44°11' W 125°00'2 3.1
2017-Oct-09 22:29N 44°12' W 124°60'2 3.3
2017-Oct-09 22:00N 44°14' W 124°58'2 3.1
2017-Oct-09 21:30N 44°15' W 124°57'2 3.9
2017-Oct-09 21:00N 44°16' W 124°56'1 2.3
2017-Oct-09 20:30N 44°16' W 124°57'3 6.7
2017-Oct-09 20:00N 44°13' W 124°59'5 9.1
2017-Oct-09 19:30N 44°08' W 124°59'4 8.9
2017-Oct-09 19:00N 44°04' W 124°58'7 9.0
2017-Oct-09 18:13N 43°57' W 124°59'7 0.6
2017-Oct-09 04:57N 43°50' W 124°54'2 4.0
2017-Oct-09 04:28N 43°49' W 124°51'2 4.7
2017-Oct-09 04:00N 43°49' W 124°54'14 0.3
2017-Oct-07 04:03N 43°53' W 124°37'0 0.2
2017-Oct-07 04:00N 43°53' W 124°37'0 0.1
2017-Oct-07 03:29N 43°53' W 124°37'0 0.1
2017-Oct-07 02:58N 43°53' W 124°37'0 0.7
2017-Oct-07 02:30N 43°53' W 124°37'4 7.9
2017-Oct-07 02:00N 43°50' W 124°39'3 5.0
2017-Oct-07 01:22N 43°46' W 124°39'0 0.5
2017-Oct-07 01:00N 43°47' W 124°39'0 0.6
2017-Oct-07 00:30N 43°47' W 124°39'0 0.8
2017-Oct-07 00:01N 43°47' W 124°38'0 0.9
2017-Oct-06 23:31N 43°48' W 124°38'0 0.9
2017-Oct-06 23:00N 43°48' W 124°38'0 0.9
2017-Oct-06 22:30N 43°48' W 124°38'0 0.9
2017-Oct-06 22:00N 43°49' W 124°37'0 0.9
2017-Oct-06 21:28N 43°49' W 124°37'0 0.9
2017-Oct-06 21:00N 43°50' W 124°37'1 2.3
2017-Oct-06 20:30N 43°50' W 124°39'2 3.7
2017-Oct-06 20:00N 43°48' W 124°39'4 7.5
2017-Oct-06 19:30N 43°45' W 124°37'3 6.5
2017-Oct-06 19:00N 43°42' W 124°36'4 7.6
2017-Oct-06 18:31N 43°42' W 124°41'2 3.3
2017-Oct-06 18:00N 43°42' W 124°39'1 1.6
2017-Oct-06 17:28N 43°43' W 124°39'1 2.3
2017-Oct-06 17:00N 43°44' W 124°39'2 2.9
2017-Oct-06 16:29N 43°45' W 124°39'2 2.5
2017-Oct-06 15:52N 43°47' W 124°39'1 2.9
2017-Oct-06 15:30N 43°48' W 124°39'2 2.8
2017-Oct-06 14:42N 43°50' W 124°38'1 3.2
2017-Oct-06 14:30N 43°51' W 124°38'2 3.7
2017-Oct-06 14:00N 43°52' W 124°38'1 2.0
2017-Oct-06 13:30N 43°53' W 124°36'0 0.6
2017-Oct-06 13:00N 43°53' W 124°36'0 0.4
2017-Oct-06 12:30N 43°53' W 124°37'0 0.3
2017-Oct-06 11:40N 43°53' W 124°37'1 3.8
2017-Oct-06 11:30N 43°52' W 124°38'2 3.6
2017-Oct-06 11:00N 43°51' W 124°39'2 3.6
2017-Oct-06 10:30N 43°50' W 124°41'2 3.4
2017-Oct-06 10:00N 43°49' W 124°42'2 4.1
2017-Oct-06 09:30N 43°47' W 124°44'2 3.5
2017-Oct-06 08:58N 43°46' W 124°46'0 0.3
2017-Oct-06 08:30N 43°46' W 124°46'1 2.2
2017-Oct-06 08:01N 43°45' W 124°44'1 1.9
2017-Oct-06 07:30N 43°46' W 124°44'1 2.4
2017-Oct-06 07:00N 43°47' W 124°43'1 2.5
2017-Oct-06 06:30N 43°47' W 124°41'1 2.7
2017-Oct-06 06:00N 43°46' W 124°40'1 2.6
2017-Oct-06 05:30N 43°45' W 124°39'1 2.1
2017-Oct-06 05:00N 43°43' W 124°39'2 3.0
2017-Oct-06 04:30N 43°42' W 124°39'1 3.0
2017-Oct-06 04:00N 43°40' W 124°39'1 3.0
2017-Oct-06 03:30N 43°39' W 124°39'2 3.4
2017-Oct-06 03:00N 43°37' W 124°39'2 3.8
2017-Oct-06 02:31N 43°39' W 124°39'0 0.5
2017-Oct-06 02:00N 43°39' W 124°39'  

Dump ship's entire track history